sensor_id;sensor_type;location;lat;lon;timestamp;P1;durP1;ratioP1;P2;durP2;ratioP2
11052;SDS011;55230;42.602;23.470;2024-02-21T00:00:02;6.97;;;4.97;;
11052;SDS011;55230;42.602;23.470;2024-02-21T00:02:28;8.10;;;5.35;;
11052;SDS011;55230;42.602;23.470;2024-02-21T00:04:53;6.30;;;4.38;;
11052;SDS011;55230;42.602;23.470;2024-02-21T00:07:19;6.97;;;5.05;;
11052;SDS011;55230;42.602;23.470;2024-02-21T00:09:44;7.65;;;5.18;;
11052;SDS011;55230;42.602;23.470;2024-02-21T00:12:10;9.55;;;5.05;;
11052;SDS011;55230;42.602;23.470;2024-02-21T00:14:35;9.60;;;6.32;;
11052;SDS011;55230;42.602;23.470;2024-02-21T00:17:01;10.20;;;5.95;;
11052;SDS011;55230;42.602;23.470;2024-02-21T00:19:26;5.60;;;4.88;;
11052;SDS011;55230;42.602;23.470;2024-02-21T00:21:51;6.85;;;5.25;;
11052;SDS011;55230;42.602;23.470;2024-02-21T00:24:17;8.07;;;5.13;;
11052;SDS011;55230;42.602;23.470;2024-02-21T00:26:42;13.70;;;6.30;;
11052;SDS011;55230;42.602;23.470;2024-02-21T00:29:07;10.90;;;6.07;;
11052;SDS011;55230;42.602;23.470;2024-02-21T00:31:33;10.20;;;5.55;;
11052;SDS011;55230;42.602;23.470;2024-02-21T00:33:59;6.32;;;4.55;;
11052;SDS011;55230;42.602;23.470;2024-02-21T00:36:24;6.65;;;4.88;;
11052;SDS011;55230;42.602;23.470;2024-02-21T00:38:49;7.18;;;5.10;;
11052;SDS011;55230;42.602;23.470;2024-02-21T00:41:15;8.05;;;5.00;;
11052;SDS011;55230;42.602;23.470;2024-02-21T00:43:41;7.88;;;5.18;;
11052;SDS011;55230;42.602;23.470;2024-02-21T00:46:06;9.20;;;5.47;;
11052;SDS011;55230;42.602;23.470;2024-02-21T00:48:32;7.97;;;4.90;;
11052;SDS011;55230;42.602;23.470;2024-02-21T00:50:58;8.23;;;5.25;;
11052;SDS011;55230;42.602;23.470;2024-02-21T00:53:24;8.55;;;4.85;;
11052;SDS011;55230;42.602;23.470;2024-02-21T00:55:49;5.10;;;4.15;;
11052;SDS011;55230;42.602;23.470;2024-02-21T00:58:15;8.73;;;5.60;;
11052;SDS011;55230;42.602;23.470;2024-02-21T01:00:40;6.68;;;4.93;;
11052;SDS011;55230;42.602;23.470;2024-02-21T01:03:06;9.65;;;4.78;;
11052;SDS011;55230;42.602;23.470;2024-02-21T01:05:31;6.47;;;5.38;;
11052;SDS011;55230;42.602;23.470;2024-02-21T01:07:56;9.43;;;5.00;;
11052;SDS011;55230;42.602;23.470;2024-02-21T01:10:22;6.18;;;4.07;;
11052;SDS011;55230;42.602;23.470;2024-02-21T01:12:47;7.15;;;5.03;;
11052;SDS011;55230;42.602;23.470;2024-02-21T01:15:13;6.65;;;4.45;;
11052;SDS011;55230;42.602;23.470;2024-02-21T01:17:38;6.30;;;4.97;;
11052;SDS011;55230;42.602;23.470;2024-02-21T01:20:05;8.02;;;4.85;;
11052;SDS011;55230;42.602;23.470;2024-02-21T01:22:31;7.35;;;5.45;;
11052;SDS011;55230;42.602;23.470;2024-02-21T01:24:57;6.68;;;5.13;;
11052;SDS011;55230;42.602;23.470;2024-02-21T01:27:22;8.07;;;4.82;;
11052;SDS011;55230;42.602;23.470;2024-02-21T01:29:48;6.60;;;4.43;;
11052;SDS011;55230;42.602;23.470;2024-02-21T01:32:14;5.95;;;4.28;;
11052;SDS011;55230;42.602;23.470;2024-02-21T01:34:40;8.45;;;5.20;;
11052;SDS011;55230;42.602;23.470;2024-02-21T01:37:06;6.60;;;4.00;;
11052;SDS011;55230;42.602;23.470;2024-02-21T01:39:32;7.38;;;4.47;;
11052;SDS011;55230;42.602;23.470;2024-02-21T01:41:58;8.43;;;5.10;;
11052;SDS011;55230;42.602;23.470;2024-02-21T01:44:24;7.60;;;4.75;;
11052;SDS011;55230;42.602;23.470;2024-02-21T01:46:49;6.90;;;4.90;;
11052;SDS011;55230;42.602;23.470;2024-02-21T01:49:16;7.85;;;5.18;;
11052;SDS011;55230;42.602;23.470;2024-02-21T01:51:42;8.57;;;5.65;;
11052;SDS011;55230;42.602;23.470;2024-02-21T01:54:08;10.20;;;5.82;;
11052;SDS011;55230;42.602;23.470;2024-02-21T01:56:34;8.07;;;5.10;;
11052;SDS011;55230;42.602;23.470;2024-02-21T01:59:00;9.10;;;4.88;;
11052;SDS011;55230;42.602;23.470;2024-02-21T02:01:25;7.47;;;4.80;;
11052;SDS011;55230;42.602;23.470;2024-02-21T02:03:51;8.07;;;5.22;;
11052;SDS011;55230;42.602;23.470;2024-02-21T02:06:18;5.45;;;4.32;;
11052;SDS011;55230;42.602;23.470;2024-02-21T02:08:43;7.13;;;4.95;;
11052;SDS011;55230;42.602;23.470;2024-02-21T02:11:09;6.05;;;4.20;;
11052;SDS011;55230;42.602;23.470;2024-02-21T02:13:35;6.93;;;4.32;;
11052;SDS011;55230;42.602;23.470;2024-02-21T02:16:00;7.43;;;4.72;;
11052;SDS011;55230;42.602;23.470;2024-02-21T02:18:26;7.10;;;5.75;;
11052;SDS011;55230;42.602;23.470;2024-02-21T02:20:51;9.35;;;6.07;;
11052;SDS011;55230;42.602;23.470;2024-02-21T02:23:25;13.18;;;9.70;;
11052;SDS011;55230;42.602;23.470;2024-02-21T02:25:50;10.70;;;6.32;;
11052;SDS011;55230;42.602;23.470;2024-02-21T02:28:17;11.95;;;6.95;;
11052;SDS011;55230;42.602;23.470;2024-02-21T02:30:43;11.18;;;6.30;;
11052;SDS011;55230;42.602;23.470;2024-02-21T02:33:08;10.77;;;6.22;;
11052;SDS011;55230;42.602;23.470;2024-02-21T02:35:34;10.13;;;5.97;;
11052;SDS011;55230;42.602;23.470;2024-02-21T02:38:03;11.40;;;7.03;;
11052;SDS011;55230;42.602;23.470;2024-02-21T02:40:29;12.15;;;7.95;;
11052;SDS011;55230;42.602;23.470;2024-02-21T02:42:55;10.10;;;7.13;;
11052;SDS011;55230;42.602;23.470;2024-02-21T02:45:21;9.70;;;7.00;;
11052;SDS011;55230;42.602;23.470;2024-02-21T02:47:51;11.02;;;7.00;;
11052;SDS011;55230;42.602;23.470;2024-02-21T02:50:21;10.30;;;6.28;;
11052;SDS011;55230;42.602;23.470;2024-02-21T02:52:47;12.55;;;8.30;;
11052;SDS011;55230;42.602;23.470;2024-02-21T02:55:13;13.65;;;7.72;;
11052;SDS011;55230;42.602;23.470;2024-02-21T02:57:39;15.20;;;7.45;;
11052;SDS011;55230;42.602;23.470;2024-02-21T03:00:06;13.70;;;8.40;;
11052;SDS011;55230;42.602;23.470;2024-02-21T03:02:33;11.52;;;8.18;;
11052;SDS011;55230;42.602;23.470;2024-02-21T03:04:58;10.82;;;8.48;;
11052;SDS011;55230;42.602;23.470;2024-02-21T03:07:24;12.40;;;8.27;;
11052;SDS011;55230;42.602;23.470;2024-02-21T03:09:50;11.88;;;7.43;;
11052;SDS011;55230;42.602;23.470;2024-02-21T03:12:16;12.55;;;7.30;;
11052;SDS011;55230;42.602;23.470;2024-02-21T03:14:49;10.45;;;6.65;;
11052;SDS011;55230;42.602;23.470;2024-02-21T03:17:15;11.10;;;6.57;;
11052;SDS011;55230;42.602;23.470;2024-02-21T03:19:40;14.52;;;8.25;;
11052;SDS011;55230;42.602;23.470;2024-02-21T03:22:06;14.07;;;8.60;;
11052;SDS011;55230;42.602;23.470;2024-02-21T03:24:31;14.13;;;8.48;;
11052;SDS011;55230;42.602;23.470;2024-02-21T03:26:56;14.40;;;9.10;;
11052;SDS011;55230;42.602;23.470;2024-02-21T03:29:23;11.65;;;7.75;;
11052;SDS011;55230;42.602;23.470;2024-02-21T03:31:49;13.68;;;8.57;;
11052;SDS011;55230;42.602;23.470;2024-02-21T03:34:14;10.93;;;7.65;;
11052;SDS011;55230;42.602;23.470;2024-02-21T03:36:40;16.27;;;8.65;;
11052;SDS011;55230;42.602;23.470;2024-02-21T03:39:05;15.18;;;9.13;;
11052;SDS011;55230;42.602;23.470;2024-02-21T03:41:30;9.57;;;6.63;;
11052;SDS011;55230;42.602;23.470;2024-02-21T03:43:56;13.90;;;7.72;;
11052;SDS011;55230;42.602;23.470;2024-02-21T03:46:21;14.90;;;8.18;;
11052;SDS011;55230;42.602;23.470;2024-02-21T03:48:47;17.52;;;8.60;;
11052;SDS011;55230;42.602;23.470;2024-02-21T03:51:12;20.20;;;10.18;;
11052;SDS011;55230;42.602;23.470;2024-02-21T03:53:37;13.48;;;7.95;;
11052;SDS011;55230;42.602;23.470;2024-02-21T03:56:03;15.38;;;8.82;;
11052;SDS011;55230;42.602;23.470;2024-02-21T03:58:32;15.18;;;8.75;;
11052;SDS011;55230;42.602;23.470;2024-02-21T04:01:01;16.73;;;10.32;;
11052;SDS011;55230;42.602;23.470;2024-02-21T04:03:28;14.73;;;8.98;;
11052;SDS011;55230;42.602;23.470;2024-02-21T04:05:54;17.45;;;8.48;;
11052;SDS011;55230;42.602;23.470;2024-02-21T04:08:19;14.60;;;9.05;;
11052;SDS011;55230;42.602;23.470;2024-02-21T04:10:45;17.08;;;9.52;;
11052;SDS011;55230;42.602;23.470;2024-02-21T04:13:10;16.60;;;8.95;;
11052;SDS011;55230;42.602;23.470;2024-02-21T04:15:35;15.48;;;8.93;;
11052;SDS011;55230;42.602;23.470;2024-02-21T04:18:01;14.15;;;9.68;;
11052;SDS011;55230;42.602;23.470;2024-02-21T04:20:28;15.98;;;8.55;;
11052;SDS011;55230;42.602;23.470;2024-02-21T04:22:54;15.70;;;8.88;;
11052;SDS011;55230;42.602;23.470;2024-02-21T04:25:19;17.30;;;10.23;;
11052;SDS011;55230;42.602;23.470;2024-02-21T04:27:45;14.35;;;9.27;;
11052;SDS011;55230;42.602;23.470;2024-02-21T04:30:11;19.45;;;12.70;;
11052;SDS011;55230;42.602;23.470;2024-02-21T04:32:36;18.88;;;12.73;;
11052;SDS011;55230;42.602;23.470;2024-02-21T04:35:02;19.10;;;9.95;;
11052;SDS011;55230;42.602;23.470;2024-02-21T04:37:27;17.10;;;10.35;;
11052;SDS011;55230;42.602;23.470;2024-02-21T04:39:53;18.52;;;10.20;;
11052;SDS011;55230;42.602;23.470;2024-02-21T04:42:18;20.70;;;14.13;;
11052;SDS011;55230;42.602;23.470;2024-02-21T04:44:44;23.80;;;13.25;;
11052;SDS011;55230;42.602;23.470;2024-02-21T04:47:09;25.23;;;12.75;;
11052;SDS011;55230;42.602;23.470;2024-02-21T04:49:35;21.75;;;13.27;;
11052;SDS011;55230;42.602;23.470;2024-02-21T04:52:00;34.65;;;16.13;;
11052;SDS011;55230;42.602;23.470;2024-02-21T04:54:26;31.80;;;14.68;;
11052;SDS011;55230;42.602;23.470;2024-02-21T04:56:51;21.75;;;10.88;;
11052;SDS011;55230;42.602;23.470;2024-02-21T04:59:17;15.73;;;9.30;;
11052;SDS011;55230;42.602;23.470;2024-02-21T05:01:43;17.95;;;11.07;;
11052;SDS011;55230;42.602;23.470;2024-02-21T05:04:08;27.02;;;14.65;;
11052;SDS011;55230;42.602;23.470;2024-02-21T05:06:37;23.13;;;12.82;;
11052;SDS011;55230;42.602;23.470;2024-02-21T05:09:06;21.90;;;16.02;;
11052;SDS011;55230;42.602;23.470;2024-02-21T05:11:33;24.75;;;11.25;;
11052;SDS011;55230;42.602;23.470;2024-02-21T05:13:59;32.38;;;15.50;;
11052;SDS011;55230;42.602;23.470;2024-02-21T05:16:24;39.55;;;22.33;;
11052;SDS011;55230;42.602;23.470;2024-02-21T05:18:50;27.85;;;15.50;;
11052;SDS011;55230;42.602;23.470;2024-02-21T05:21:15;18.00;;;10.35;;
11052;SDS011;55230;42.602;23.470;2024-02-21T05:23:41;31.85;;;15.73;;
11052;SDS011;55230;42.602;23.470;2024-02-21T05:26:06;26.08;;;13.75;;
11052;SDS011;55230;42.602;23.470;2024-02-21T05:28:32;25.05;;;13.45;;
11052;SDS011;55230;42.602;23.470;2024-02-21T05:30:57;17.67;;;9.85;;
11052;SDS011;55230;42.602;23.470;2024-02-21T05:33:23;18.83;;;11.40;;
11052;SDS011;55230;42.602;23.470;2024-02-21T05:35:48;15.10;;;9.13;;
11052;SDS011;55230;42.602;23.470;2024-02-21T05:38:14;17.23;;;9.43;;
11052;SDS011;55230;42.602;23.470;2024-02-21T05:40:40;19.25;;;10.65;;
11052;SDS011;55230;42.602;23.470;2024-02-21T05:43:07;17.25;;;9.85;;
11052;SDS011;55230;42.602;23.470;2024-02-21T05:45:33;19.33;;;9.60;;
11052;SDS011;55230;42.602;23.470;2024-02-21T05:47:58;21.88;;;10.77;;
11052;SDS011;55230;42.602;23.470;2024-02-21T05:50:24;23.63;;;12.48;;
11052;SDS011;55230;42.602;23.470;2024-02-21T05:52:56;29.02;;;13.40;;
11052;SDS011;55230;42.602;23.470;2024-02-21T05:55:22;26.00;;;14.13;;
11052;SDS011;55230;42.602;23.470;2024-02-21T05:57:47;19.15;;;10.07;;
11052;SDS011;55230;42.602;23.470;2024-02-21T06:00:13;19.35;;;10.93;;
11052;SDS011;55230;42.602;23.470;2024-02-21T06:02:39;18.45;;;9.32;;
11052;SDS011;55230;42.602;23.470;2024-02-21T06:05:05;19.30;;;9.18;;
11052;SDS011;55230;42.602;23.470;2024-02-21T06:07:32;19.73;;;10.82;;
11052;SDS011;55230;42.602;23.470;2024-02-21T06:09:58;19.77;;;11.63;;
11052;SDS011;55230;42.602;23.470;2024-02-21T06:12:23;17.80;;;10.82;;
11052;SDS011;55230;42.602;23.470;2024-02-21T06:14:49;26.25;;;12.68;;
11052;SDS011;55230;42.602;23.470;2024-02-21T06:17:14;39.28;;;18.90;;
11052;SDS011;55230;42.602;23.470;2024-02-21T06:19:40;50.35;;;23.63;;
11052;SDS011;55230;42.602;23.470;2024-02-21T06:22:07;20.42;;;12.55;;
11052;SDS011;55230;42.602;23.470;2024-02-21T06:24:33;19.20;;;11.80;;
11052;SDS011;55230;42.602;23.470;2024-02-21T06:26:59;19.40;;;11.88;;
11052;SDS011;55230;42.602;23.470;2024-02-21T06:29:24;17.23;;;10.73;;
11052;SDS011;55230;42.602;23.470;2024-02-21T06:31:50;23.23;;;12.05;;
11052;SDS011;55230;42.602;23.470;2024-02-21T06:34:15;18.83;;;10.98;;
11052;SDS011;55230;42.602;23.470;2024-02-21T06:36:42;20.10;;;11.15;;
11052;SDS011;55230;42.602;23.470;2024-02-21T06:39:07;18.60;;;9.80;;
11052;SDS011;55230;42.602;23.470;2024-02-21T06:41:32;17.15;;;9.38;;
11052;SDS011;55230;42.602;23.470;2024-02-21T06:43:59;19.75;;;11.10;;
11052;SDS011;55230;42.602;23.470;2024-02-21T06:46:25;16.15;;;10.07;;
11052;SDS011;55230;42.602;23.470;2024-02-21T06:48:51;17.20;;;10.18;;
11052;SDS011;55230;42.602;23.470;2024-02-21T06:51:17;15.15;;;9.73;;
11052;SDS011;55230;42.602;23.470;2024-02-21T06:53:43;20.80;;;10.15;;
11052;SDS011;55230;42.602;23.470;2024-02-21T06:56:09;15.85;;;10.38;;
11052;SDS011;55230;42.602;23.470;2024-02-21T06:58:35;18.95;;;11.18;;
11052;SDS011;55230;42.602;23.470;2024-02-21T07:01:01;17.48;;;10.02;;
11052;SDS011;55230;42.602;23.470;2024-02-21T07:03:26;20.23;;;11.90;;
11052;SDS011;55230;42.602;23.470;2024-02-21T07:05:52;20.00;;;10.70;;
11052;SDS011;55230;42.602;23.470;2024-02-21T07:08:17;21.60;;;10.52;;
11052;SDS011;55230;42.602;23.470;2024-02-21T07:10:43;35.22;;;15.27;;
11052;SDS011;55230;42.602;23.470;2024-02-21T07:13:08;25.08;;;12.48;;
11052;SDS011;55230;42.602;23.470;2024-02-21T07:15:33;27.38;;;15.35;;
11052;SDS011;55230;42.602;23.470;2024-02-21T07:17:59;20.08;;;11.77;;
11052;SDS011;55230;42.602;23.470;2024-02-21T07:20:24;19.45;;;10.90;;
11052;SDS011;55230;42.602;23.470;2024-02-21T07:22:50;18.88;;;11.35;;
11052;SDS011;55230;42.602;23.470;2024-02-21T07:25:16;22.27;;;11.25;;
11052;SDS011;55230;42.602;23.470;2024-02-21T07:27:42;20.65;;;11.20;;
11052;SDS011;55230;42.602;23.470;2024-02-21T07:30:08;23.60;;;12.70;;
11052;SDS011;55230;42.602;23.470;2024-02-21T07:32:34;17.27;;;10.52;;
11052;SDS011;55230;42.602;23.470;2024-02-21T07:34:59;42.28;;;15.43;;
11052;SDS011;55230;42.602;23.470;2024-02-21T07:37:25;22.77;;;13.73;;
11052;SDS011;55230;42.602;23.470;2024-02-21T07:39:50;26.50;;;12.77;;
11052;SDS011;55230;42.602;23.470;2024-02-21T07:42:15;20.13;;;11.43;;
11052;SDS011;55230;42.602;23.470;2024-02-21T07:44:41;24.52;;;12.30;;
11052;SDS011;55230;42.602;23.470;2024-02-21T07:47:06;35.45;;;15.40;;
11052;SDS011;55230;42.602;23.470;2024-02-21T07:49:32;30.25;;;15.27;;
11052;SDS011;55230;42.602;23.470;2024-02-21T07:51:57;31.55;;;12.65;;
11052;SDS011;55230;42.602;23.470;2024-02-21T07:54:25;21.58;;;10.95;;
11052;SDS011;55230;42.602;23.470;2024-02-21T07:56:51;24.70;;;12.90;;
11052;SDS011;55230;42.602;23.470;2024-02-21T07:59:16;22.38;;;13.50;;
11052;SDS011;55230;42.602;23.470;2024-02-21T08:01:42;21.38;;;12.02;;
11052;SDS011;55230;42.602;23.470;2024-02-21T08:04:09;23.38;;;12.45;;
11052;SDS011;55230;42.602;23.470;2024-02-21T08:06:35;25.42;;;13.02;;
11052;SDS011;55230;42.602;23.470;2024-02-21T08:09:00;25.42;;;13.35;;
11052;SDS011;55230;42.602;23.470;2024-02-21T08:11:25;26.40;;;15.68;;
11052;SDS011;55230;42.602;23.470;2024-02-21T08:13:51;23.35;;;12.65;;
11052;SDS011;55230;42.602;23.470;2024-02-21T08:16:16;23.50;;;14.68;;
11052;SDS011;55230;42.602;23.470;2024-02-21T08:18:43;23.13;;;14.98;;
11052;SDS011;55230;42.602;23.470;2024-02-21T08:21:09;24.00;;;15.13;;
11052;SDS011;55230;42.602;23.470;2024-02-21T08:23:35;24.08;;;13.93;;
11052;SDS011;55230;42.602;23.470;2024-02-21T08:26:02;24.90;;;15.80;;
11052;SDS011;55230;42.602;23.470;2024-02-21T08:28:29;24.88;;;14.25;;
11052;SDS011;55230;42.602;23.470;2024-02-21T08:30:54;24.35;;;14.68;;
11052;SDS011;55230;42.602;23.470;2024-02-21T08:33:20;31.65;;;16.85;;
11052;SDS011;55230;42.602;23.470;2024-02-21T08:35:49;28.15;;;16.83;;
11052;SDS011;55230;42.602;23.470;2024-02-21T08:38:15;32.50;;;17.52;;
11052;SDS011;55230;42.602;23.470;2024-02-21T08:40:40;28.23;;;14.98;;
11052;SDS011;55230;42.602;23.470;2024-02-21T08:43:06;28.88;;;17.02;;
11052;SDS011;55230;42.602;23.470;2024-02-21T08:45:31;27.70;;;15.75;;
11052;SDS011;55230;42.602;23.470;2024-02-21T08:47:56;29.15;;;17.17;;
11052;SDS011;55230;42.602;23.470;2024-02-21T08:50:22;27.35;;;14.73;;
11052;SDS011;55230;42.602;23.470;2024-02-21T08:52:47;28.77;;;13.95;;
11052;SDS011;55230;42.602;23.470;2024-02-21T08:55:13;25.58;;;14.70;;
11052;SDS011;55230;42.602;23.470;2024-02-21T08:57:38;28.00;;;16.13;;
11052;SDS011;55230;42.602;23.470;2024-02-21T09:00:04;24.73;;;14.02;;
11052;SDS011;55230;42.602;23.470;2024-02-21T09:02:35;24.60;;;14.43;;
11052;SDS011;55230;42.602;23.470;2024-02-21T09:05:02;23.70;;;13.15;;
11052;SDS011;55230;42.602;23.470;2024-02-21T09:07:30;23.20;;;13.60;;
11052;SDS011;55230;42.602;23.470;2024-02-21T09:09:55;24.55;;;13.20;;
11052;SDS011;55230;42.602;23.470;2024-02-21T09:12:21;23.95;;;12.23;;
11052;SDS011;55230;42.602;23.470;2024-02-21T09:14:46;21.98;;;12.07;;
11052;SDS011;55230;42.602;23.470;2024-02-21T09:17:14;25.08;;;15.73;;
11052;SDS011;55230;42.602;23.470;2024-02-21T09:19:42;18.80;;;11.70;;
11052;SDS011;55230;42.602;23.470;2024-02-21T09:22:07;20.13;;;12.55;;
11052;SDS011;55230;42.602;23.470;2024-02-21T09:24:33;22.63;;;13.18;;
11052;SDS011;55230;42.602;23.470;2024-02-21T09:26:58;17.00;;;11.15;;
11052;SDS011;55230;42.602;23.470;2024-02-21T09:29:25;22.58;;;12.95;;
11052;SDS011;55230;42.602;23.470;2024-02-21T09:31:51;20.88;;;12.50;;
11052;SDS011;55230;42.602;23.470;2024-02-21T09:34:17;22.27;;;13.00;;
11052;SDS011;55230;42.602;23.470;2024-02-21T09:36:42;21.45;;;13.20;;
11052;SDS011;55230;42.602;23.470;2024-02-21T09:39:09;21.25;;;11.02;;
11052;SDS011;55230;42.602;23.470;2024-02-21T09:41:36;18.95;;;11.35;;
11052;SDS011;55230;42.602;23.470;2024-02-21T09:44:07;20.42;;;10.05;;
11052;SDS011;55230;42.602;23.470;2024-02-21T09:49:31;19.00;;;12.02;;
11052;SDS011;55230;42.602;23.470;2024-02-21T09:52:00;20.10;;;11.82;;
11052;SDS011;55230;42.602;23.470;2024-02-21T09:54:28;13.95;;;8.88;;
11052;SDS011;55230;42.602;23.470;2024-02-21T09:56:55;14.40;;;9.18;;
11052;SDS011;55230;42.602;23.470;2024-02-21T09:59:21;17.42;;;9.68;;
11052;SDS011;55230;42.602;23.470;2024-02-21T10:01:49;19.73;;;11.75;;
11052;SDS011;55230;42.602;23.470;2024-02-21T10:04:16;12.15;;;9.05;;
11052;SDS011;55230;42.602;23.470;2024-02-21T10:06:41;14.38;;;8.75;;
11052;SDS011;55230;42.602;23.470;2024-02-21T10:09:07;22.13;;;12.57;;
11052;SDS011;55230;42.602;23.470;2024-02-21T10:11:32;19.33;;;13.27;;
11052;SDS011;55230;42.602;23.470;2024-02-21T10:14:07;18.20;;;12.15;;
11052;SDS011;55230;42.602;23.470;2024-02-21T10:16:33;16.60;;;10.63;;
11052;SDS011;55230;42.602;23.470;2024-02-21T10:18:59;16.27;;;9.45;;
11052;SDS011;55230;42.602;23.470;2024-02-21T10:21:24;23.33;;;9.63;;
11052;SDS011;55230;42.602;23.470;2024-02-21T10:23:50;17.00;;;12.45;;
11052;SDS011;55230;42.602;23.470;2024-02-21T10:26:20;17.65;;;11.07;;
11052;SDS011;55230;42.602;23.470;2024-02-21T10:28:46;13.88;;;9.40;;
11052;SDS011;55230;42.602;23.470;2024-02-21T10:31:23;18.05;;;10.93;;
11052;SDS011;55230;42.602;23.470;2024-02-21T10:34:02;19.73;;;11.48;;
11052;SDS011;55230;42.602;23.470;2024-02-21T10:36:30;12.45;;;8.65;;
11052;SDS011;55230;42.602;23.470;2024-02-21T10:38:56;14.65;;;8.60;;
11052;SDS011;55230;42.602;23.470;2024-02-21T10:41:22;11.40;;;8.10;;
11052;SDS011;55230;42.602;23.470;2024-02-21T10:43:54;16.90;;;9.93;;
11052;SDS011;55230;42.602;23.470;2024-02-21T10:46:21;11.60;;;7.45;;
11052;SDS011;55230;42.602;23.470;2024-02-21T10:48:48;11.68;;;7.05;;
11052;SDS011;55230;42.602;23.470;2024-02-21T10:51:23;11.13;;;6.38;;
11052;SDS011;55230;42.602;23.470;2024-02-21T10:56:40;30.10;;;16.83;;
11052;SDS011;55230;42.602;23.470;2024-02-21T10:59:07;12.55;;;8.43;;
11052;SDS011;55230;42.602;23.470;2024-02-21T11:01:33;24.35;;;13.90;;
11052;SDS011;55230;42.602;23.470;2024-02-21T11:04:06;10.45;;;7.85;;
11052;SDS011;55230;42.602;23.470;2024-02-21T11:06:34;14.20;;;8.57;;
11052;SDS011;55230;42.602;23.470;2024-02-21T11:11:39;10.98;;;7.60;;
11052;SDS011;55230;42.602;23.470;2024-02-21T11:14:18;10.98;;;7.78;;
11052;SDS011;55230;42.602;23.470;2024-02-21T11:16:45;12.52;;;9.60;;
11052;SDS011;55230;42.602;23.470;2024-02-21T11:19:23;10.60;;;7.53;;
11052;SDS011;55230;42.602;23.470;2024-02-21T11:21:50;12.27;;;8.77;;
11052;SDS011;55230;42.602;23.470;2024-02-21T11:24:33;8.95;;;6.38;;
11052;SDS011;55230;42.602;23.470;2024-02-21T11:27:15;8.95;;;5.97;;
11052;SDS011;55230;42.602;23.470;2024-02-21T11:29:48;8.60;;;7.22;;
11052;SDS011;55230;42.602;23.470;2024-02-21T11:32:16;15.90;;;7.70;;
11052;SDS011;55230;42.602;23.470;2024-02-21T11:35:03;10.25;;;6.95;;
11052;SDS011;55230;42.602;23.470;2024-02-21T11:37:30;10.90;;;6.57;;
11052;SDS011;55230;42.602;23.470;2024-02-21T11:39:58;9.60;;;6.32;;
11052;SDS011;55230;42.602;23.470;2024-02-21T11:42:27;9.85;;;6.53;;
11052;SDS011;55230;42.602;23.470;2024-02-21T11:44:54;11.55;;;6.68;;
11052;SDS011;55230;42.602;23.470;2024-02-21T11:47:22;8.55;;;7.10;;
11052;SDS011;55230;42.602;23.470;2024-02-21T11:49:48;10.70;;;7.13;;
11052;SDS011;55230;42.602;23.470;2024-02-21T11:52:15;9.10;;;6.00;;
11052;SDS011;55230;42.602;23.470;2024-02-21T11:54:43;9.45;;;6.30;;
11052;SDS011;55230;42.602;23.470;2024-02-21T11:57:09;8.10;;;5.35;;
11052;SDS011;55230;42.602;23.470;2024-02-21T11:59:36;7.85;;;6.22;;
11052;SDS011;55230;42.602;23.470;2024-02-21T12:02:01;7.85;;;6.47;;
11052;SDS011;55230;42.602;23.470;2024-02-21T12:04:30;7.25;;;5.93;;
11052;SDS011;55230;42.602;23.470;2024-02-21T12:06:56;5.53;;;4.55;;
11052;SDS011;55230;42.602;23.470;2024-02-21T12:09:23;15.98;;;9.85;;
11052;SDS011;55230;42.602;23.470;2024-02-21T12:12:02;7.70;;;6.13;;
11052;SDS011;55230;42.602;23.470;2024-02-21T12:14:29;4.90;;;4.15;;
11052;SDS011;55230;42.602;23.470;2024-02-21T12:16:56;5.35;;;3.65;;
11052;SDS011;55230;42.602;23.470;2024-02-21T12:19:22;4.40;;;4.00;;
11052;SDS011;55230;42.602;23.470;2024-02-21T12:21:50;9.23;;;6.05;;
11052;SDS011;55230;42.602;23.470;2024-02-21T12:24:20;4.18;;;3.78;;
11052;SDS011;55230;42.602;23.470;2024-02-21T12:26:47;8.20;;;5.78;;
11052;SDS011;55230;42.602;23.470;2024-02-21T12:29:13;5.85;;;4.15;;
11052;SDS011;55230;42.602;23.470;2024-02-21T12:31:38;4.93;;;3.97;;
11052;SDS011;55230;42.602;23.470;2024-02-21T12:34:04;5.60;;;4.00;;
11052;SDS011;55230;42.602;23.470;2024-02-21T12:36:31;4.90;;;4.07;;
11052;SDS011;55230;42.602;23.470;2024-02-21T12:38:56;3.97;;;3.55;;
11052;SDS011;55230;42.602;23.470;2024-02-21T12:41:22;4.72;;;3.83;;
11052;SDS011;55230;42.602;23.470;2024-02-21T12:43:47;8.85;;;3.65;;
11052;SDS011;55230;42.602;23.470;2024-02-21T12:46:13;3.40;;;2.88;;
11052;SDS011;55230;42.602;23.470;2024-02-21T12:48:38;5.03;;;4.03;;
11052;SDS011;55230;42.602;23.470;2024-02-21T12:51:05;6.78;;;5.72;;
11052;SDS011;55230;42.602;23.470;2024-02-21T12:53:30;5.65;;;3.67;;
11052;SDS011;55230;42.602;23.470;2024-02-21T12:55:55;6.43;;;4.30;;
11052;SDS011;55230;42.602;23.470;2024-02-21T12:58:21;6.95;;;5.05;;
11052;SDS011;55230;42.602;23.470;2024-02-21T13:00:47;5.65;;;4.57;;
11052;SDS011;55230;42.602;23.470;2024-02-21T13:03:12;9.75;;;6.35;;
11052;SDS011;55230;42.602;23.470;2024-02-21T13:05:39;5.47;;;4.63;;
11052;SDS011;55230;42.602;23.470;2024-02-21T13:08:05;5.28;;;4.18;;
11052;SDS011;55230;42.602;23.470;2024-02-21T13:10:32;10.10;;;8.48;;
11052;SDS011;55230;42.602;23.470;2024-02-21T13:12:59;6.47;;;5.10;;
11052;SDS011;55230;42.602;23.470;2024-02-21T13:15:25;7.13;;;4.07;;
11052;SDS011;55230;42.602;23.470;2024-02-21T13:17:50;4.28;;;3.75;;
11052;SDS011;55230;42.602;23.470;2024-02-21T13:20:16;4.43;;;4.03;;
11052;SDS011;55230;42.602;23.470;2024-02-21T13:22:41;5.75;;;3.97;;
11052;SDS011;55230;42.602;23.470;2024-02-21T13:25:06;4.05;;;3.65;;
11052;SDS011;55230;42.602;23.470;2024-02-21T13:27:32;7.25;;;3.83;;
11052;SDS011;55230;42.602;23.470;2024-02-21T13:29:58;5.55;;;4.15;;
11052;SDS011;55230;42.602;23.470;2024-02-21T13:32:25;8.35;;;4.10;;
11052;SDS011;55230;42.602;23.470;2024-02-21T13:34:50;9.95;;;4.88;;
11052;SDS011;55230;42.602;23.470;2024-02-21T13:37:17;6.65;;;4.63;;
11052;SDS011;55230;42.602;23.470;2024-02-21T13:39:43;5.20;;;4.60;;
11052;SDS011;55230;42.602;23.470;2024-02-21T13:42:09;7.05;;;4.88;;
11052;SDS011;55230;42.602;23.470;2024-02-21T13:44:34;8.00;;;5.38;;
11052;SDS011;55230;42.602;23.470;2024-02-21T13:47:01;8.50;;;6.15;;
11052;SDS011;55230;42.602;23.470;2024-02-21T13:49:27;10.65;;;6.75;;
11052;SDS011;55230;42.602;23.470;2024-02-21T13:51:53;13.45;;;8.50;;
11052;SDS011;55230;42.602;23.470;2024-02-21T13:54:19;10.95;;;6.97;;
11052;SDS011;55230;42.602;23.470;2024-02-21T13:56:44;10.32;;;6.38;;
11052;SDS011;55230;42.602;23.470;2024-02-21T13:59:11;9.88;;;6.80;;
11052;SDS011;55230;42.602;23.470;2024-02-21T14:01:38;11.50;;;9.13;;
11052;SDS011;55230;42.602;23.470;2024-02-21T14:04:04;8.57;;;6.20;;
11052;SDS011;55230;42.602;23.470;2024-02-21T14:06:29;8.05;;;5.68;;
11052;SDS011;55230;42.602;23.470;2024-02-21T14:08:55;8.70;;;6.00;;
11052;SDS011;55230;42.602;23.470;2024-02-21T14:11:20;7.00;;;5.57;;
11052;SDS011;55230;42.602;23.470;2024-02-21T14:13:45;8.60;;;5.97;;
11052;SDS011;55230;42.602;23.470;2024-02-21T14:16:11;7.55;;;5.68;;
11052;SDS011;55230;42.602;23.470;2024-02-21T14:18:38;8.63;;;6.20;;
11052;SDS011;55230;42.602;23.470;2024-02-21T14:21:06;7.82;;;5.88;;
11052;SDS011;55230;42.602;23.470;2024-02-21T14:23:32;6.32;;;4.88;;